sensor_id;sensor_type;location;lat;lon;timestamp;temperature;humidity
37446;DHT22;23307;51.136;14.942;2023-09-18T00:01:57;18.80;99.90
37446;DHT22;23307;51.136;14.942;2023-09-18T00:04:23;18.70;99.90
37446;DHT22;23307;51.136;14.942;2023-09-18T00:06:48;18.70;99.90
37446;DHT22;23307;51.136;14.942;2023-09-18T00:09:14;18.70;99.90
37446;DHT22;23307;51.136;14.942;2023-09-18T00:11:40;18.70;99.90
37446;DHT22;23307;51.136;14.942;2023-09-18T00:14:07;18.70;99.90
37446;DHT22;23307;51.136;14.942;2023-09-18T00:16:32;18.70;99.90
37446;DHT22;23307;51.136;14.942;2023-09-18T00:18:58;18.70;99.90
37446;DHT22;23307;51.136;14.942;2023-09-18T00:21:24;18.70;99.90
37446;DHT22;23307;51.136;14.942;2023-09-18T00:23:51;18.70;99.90
37446;DHT22;23307;51.136;14.942;2023-09-18T00:26:16;18.70;99.90
37446;DHT22;23307;51.136;14.942;2023-09-18T00:28:42;18.70;99.90
37446;DHT22;23307;51.136;14.942;2023-09-18T00:31:08;18.70;99.90
37446;DHT22;23307;51.136;14.942;2023-09-18T00:33:33;18.70;99.90
37446;DHT22;23307;51.136;14.942;2023-09-18T00:35:59;18.80;99.90
37446;DHT22;23307;51.136;14.942;2023-09-18T00:38:24;18.80;99.90
37446;DHT22;23307;51.136;14.942;2023-09-18T00:40:50;18.80;99.90
37446;DHT22;23307;51.136;14.942;2023-09-18T00:43:15;18.90;99.90
37446;DHT22;23307;51.136;14.942;2023-09-18T00:45:45;18.90;99.90
37446;DHT22;23307;51.136;14.942;2023-09-18T00:48:12;18.90;99.90
37446;DHT22;23307;51.136;14.942;2023-09-18T00:50:37;18.90;99.90
37446;DHT22;23307;51.136;14.942;2023-09-18T00:53:04;18.90;99.90
37446;DHT22;23307;51.136;14.942;2023-09-18T00:55:30;18.90;99.90
37446;DHT22;23307;51.136;14.942;2023-09-18T00:57:57;19.00;99.90
37446;DHT22;23307;51.136;14.942;2023-09-18T01:00:23;19.00;99.90
37446;DHT22;23307;51.136;14.942;2023-09-18T01:02:49;19.10;99.90
37446;DHT22;23307;51.136;14.942;2023-09-18T01:05:15;19.10;99.90
37446;DHT22;23307;51.136;14.942;2023-09-18T01:07:42;19.10;99.90
37446;DHT22;23307;51.136;14.942;2023-09-18T01:10:08;19.10;99.90
37446;DHT22;23307;51.136;14.942;2023-09-18T01:12:48;19.10;99.90
37446;DHT22;23307;51.136;14.942;2023-09-18T01:15:32;19.10;99.90
37446;DHT22;23307;51.136;14.942;2023-09-18T01:18:00;19.00;99.90
37446;DHT22;23307;51.136;14.942;2023-09-18T01:20:26;19.10;99.90
37446;DHT22;23307;51.136;14.942;2023-09-18T01:22:53;19.10;99.90
37446;DHT22;23307;51.136;14.942;2023-09-18T01:25:18;19.20;99.90
37446;DHT22;23307;51.136;14.942;2023-09-18T01:27:44;19.20;99.90
37446;DHT22;23307;51.136;14.942;2023-09-18T01:30:10;19.20;99.90
37446;DHT22;23307;51.136;14.942;2023-09-18T01:32:36;19.20;99.90
37446;DHT22;23307;51.136;14.942;2023-09-18T01:35:04;19.30;99.90
37446;DHT22;23307;51.136;14.942;2023-09-18T01:37:33;19.30;99.90
37446;DHT22;23307;51.136;14.942;2023-09-18T01:40:02;19.30;99.90
37446;DHT22;23307;51.136;14.942;2023-09-18T01:42:32;19.30;99.90
37446;DHT22;23307;51.136;14.942;2023-09-18T01:44:57;19.30;99.90
37446;DHT22;23307;51.136;14.942;2023-09-18T01:47:23;19.30;99.90
37446;DHT22;23307;51.136;14.942;2023-09-18T01:49:49;19.30;99.90
37446;DHT22;23307;51.136;14.942;2023-09-18T01:52:15;19.30;99.90
37446;DHT22;23307;51.136;14.942;2023-09-18T01:54:41;19.40;99.90
37446;DHT22;23307;51.136;14.942;2023-09-18T01:57:06;19.50;99.90
37446;DHT22;23307;51.136;14.942;2023-09-18T01:59:35;19.60;99.90
37446;DHT22;23307;51.136;14.942;2023-09-18T02:02:01;19.60;99.90
37446;DHT22;23307;51.136;14.942;2023-09-18T02:04:29;19.60;99.90
37446;DHT22;23307;51.136;14.942;2023-09-18T02:06:55;19.60;99.90
37446;DHT22;23307;51.136;14.942;2023-09-18T02:09:21;19.70;99.90
37446;DHT22;23307;51.136;14.942;2023-09-18T02:11:47;19.80;99.90
37446;DHT22;23307;51.136;14.942;2023-09-18T02:14:13;19.90;99.90
37446;DHT22;23307;51.136;14.942;2023-09-18T02:16:41;19.90;99.90
37446;DHT22;23307;51.136;14.942;2023-09-18T02:19:07;20.10;99.90
37446;DHT22;23307;51.136;14.942;2023-09-18T02:21:34;20.20;99.90
37446;DHT22;23307;51.136;14.942;2023-09-18T02:23:59;20.30;99.90
37446;DHT22;23307;51.136;14.942;2023-09-18T02:26:25;20.50;99.90
37446;DHT22;23307;51.136;14.942;2023-09-18T02:28:54;20.60;99.90
37446;DHT22;23307;51.136;14.942;2023-09-18T02:31:20;20.60;99.90
37446;DHT22;23307;51.136;14.942;2023-09-18T02:33:46;20.70;99.90
37446;DHT22;23307;51.136;14.942;2023-09-18T02:36:12;20.80;99.90
37446;DHT22;23307;51.136;14.942;2023-09-18T02:38:38;20.80;99.90
37446;DHT22;23307;51.136;14.942;2023-09-18T02:41:03;20.90;99.90
37446;DHT22;23307;51.136;14.942;2023-09-18T02:43:29;20.90;99.90
37446;DHT22;23307;51.136;14.942;2023-09-18T02:45:55;20.90;99.90
37446;DHT22;23307;51.136;14.942;2023-09-18T02:48:20;21.00;99.90
37446;DHT22;23307;51.136;14.942;2023-09-18T02:50:46;21.00;99.90
37446;DHT22;23307;51.136;14.942;2023-09-18T02:53:18;21.00;99.90
37446;DHT22;23307;51.136;14.942;2023-09-18T02:55:45;21.00;99.90
37446;DHT22;23307;51.136;14.942;2023-09-18T02:58:11;21.00;99.90
37446;DHT22;23307;51.136;14.942;2023-09-18T03:00:43;21.00;99.90
37446;DHT22;23307;51.136;14.942;2023-09-18T03:03:09;21.00;99.90
37446;DHT22;23307;51.136;14.942;2023-09-18T03:05:36;20.90;99.90
37446;DHT22;23307;51.136;14.942;2023-09-18T03:08:01;20.80;99.90
37446;DHT22;23307;51.136;14.942;2023-09-18T03:10:27;20.80;99.90
37446;DHT22;23307;51.136;14.942;2023-09-18T03:12:53;20.70;99.90
37446;DHT22;23307;51.136;14.942;2023-09-18T03:15:18;20.70;99.90
37446;DHT22;23307;51.136;14.942;2023-09-18T03:17:44;20.60;99.90
37446;DHT22;23307;51.136;14.942;2023-09-18T03:20:10;20.60;99.90
37446;DHT22;23307;51.136;14.942;2023-09-18T03:22:35;20.60;99.90
37446;DHT22;23307;51.136;14.942;2023-09-18T03:25:01;20.50;99.90
37446;DHT22;23307;51.136;14.942;2023-09-18T03:27:28;20.50;99.90
37446;DHT22;23307;51.136;14.942;2023-09-18T03:29:54;20.40;99.90
37446;DHT22;23307;51.136;14.942;2023-09-18T03:32:20;20.40;99.90
37446;DHT22;23307;51.136;14.942;2023-09-18T03:34:45;20.30;99.90
37446;DHT22;23307;51.136;14.942;2023-09-18T03:37:11;20.30;99.90
37446;DHT22;23307;51.136;14.942;2023-09-18T03:39:36;20.30;99.90
37446;DHT22;23307;51.136;14.942;2023-09-18T03:42:02;20.20;99.90
37446;DHT22;23307;51.136;14.942;2023-09-18T03:44:28;20.20;99.90
37446;DHT22;23307;51.136;14.942;2023-09-18T03:46:54;20.10;99.90
37446;DHT22;23307;51.136;14.942;2023-09-18T03:49:20;20.00;99.90
37446;DHT22;23307;51.136;14.942;2023-09-18T03:51:45;19.90;99.90
37446;DHT22;23307;51.136;14.942;2023-09-18T03:54:11;19.70;99.90
37446;DHT22;23307;51.136;14.942;2023-09-18T03:56:36;19.60;99.90
37446;DHT22;23307;51.136;14.942;2023-09-18T03:59:02;19.50;99.90
37446;DHT22;23307;51.136;14.942;2023-09-18T04:01:27;19.40;99.90
37446;DHT22;23307;51.136;14.942;2023-09-18T04:03:53;19.30;99.90
37446;DHT22;23307;51.136;14.942;2023-09-18T04:06:21;19.30;99.90
37446;DHT22;23307;51.136;14.942;2023-09-18T04:08:46;19.20;99.90
37446;DHT22;23307;51.136;14.942;2023-09-18T04:11:12;19.10;99.90
37446;DHT22;23307;51.136;14.942;2023-09-18T04:13:38;19.10;99.90
37446;DHT22;23307;51.136;14.942;2023-09-18T04:16:04;19.00;99.90
37446;DHT22;23307;51.136;14.942;2023-09-18T04:18:30;18.90;99.90
37446;DHT22;23307;51.136;14.942;2023-09-18T04:20:55;18.90;99.90
37446;DHT22;23307;51.136;14.942;2023-09-18T04:23:23;18.80;99.90
37446;DHT22;23307;51.136;14.942;2023-09-18T04:25:50;18.70;99.90
37446;DHT22;23307;51.136;14.942;2023-09-18T04:28:17;18.70;99.90
37446;DHT22;23307;51.136;14.942;2023-09-18T04:30:44;18.60;99.90
37446;DHT22;23307;51.136;14.942;2023-09-18T04:33:10;18.60;99.90
37446;DHT22;23307;51.136;14.942;2023-09-18T04:35:37;18.60;99.90
37446;DHT22;23307;51.136;14.942;2023-09-18T04:38:06;18.60;99.90
37446;DHT22;23307;51.136;14.942;2023-09-18T04:40:31;18.60;99.90
37446;DHT22;23307;51.136;14.942;2023-09-18T04:43:01;18.60;99.90
37446;DHT22;23307;51.136;14.942;2023-09-18T04:45:26;18.60;99.90
37446;DHT22;23307;51.136;14.942;2023-09-18T04:47:53;18.60;99.90
37446;DHT22;23307;51.136;14.942;2023-09-18T04:50:19;18.60;99.90
37446;DHT22;23307;51.136;14.942;2023-09-18T04:52:44;18.60;99.90
37446;DHT22;23307;51.136;14.942;2023-09-18T04:55:10;18.60;99.90
37446;DHT22;23307;51.136;14.942;2023-09-18T04:57:37;18.60;99.90
37446;DHT22;23307;51.136;14.942;2023-09-18T05:00:03;18.60;99.90
37446;DHT22;23307;51.136;14.942;2023-09-18T05:02:33;18.60;99.90
37446;DHT22;23307;51.136;14.942;2023-09-18T05:05:00;18.60;99.90
37446;DHT22;23307;51.136;14.942;2023-09-18T05:07:25;18.60;99.90
37446;DHT22;23307;51.136;14.942;2023-09-18T05:09:52;18.70;99.90
37446;DHT22;23307;51.136;14.942;2023-09-18T05:12:17;18.70;99.90
37446;DHT22;23307;51.136;14.942;2023-09-18T05:14:43;18.70;99.90
37446;DHT22;23307;51.136;14.942;2023-09-18T05:17:10;18.70;99.90
37446;DHT22;23307;51.136;14.942;2023-09-18T05:19:39;18.70;99.90
37446;DHT22;23307;51.136;14.942;2023-09-18T05:22:05;18.70;99.90
37446;DHT22;23307;51.136;14.942;2023-09-18T05:24:31;18.80;99.90
37446;DHT22;23307;51.136;14.942;2023-09-18T05:26:56;18.80;99.90
37446;DHT22;23307;51.136;14.942;2023-09-18T05:29:22;18.80;99.90
37446;DHT22;23307;51.136;14.942;2023-09-18T05:31:48;18.80;99.90
37446;DHT22;23307;51.136;14.942;2023-09-18T05:34:13;18.80;99.90
37446;DHT22;23307;51.136;14.942;2023-09-18T05:36:39;18.80;99.90
37446;DHT22;23307;51.136;14.942;2023-09-18T05:39:05;18.90;99.90
37446;DHT22;23307;51.136;14.942;2023-09-18T05:41:30;18.90;99.90
37446;DHT22;23307;51.136;14.942;2023-09-18T05:43:56;18.90;99.90
37446;DHT22;23307;51.136;14.942;2023-09-18T05:46:22;19.00;99.90
37446;DHT22;23307;51.136;14.942;2023-09-18T05:48:48;19.10;99.90
37446;DHT22;23307;51.136;14.942;2023-09-18T05:51:13;19.10;99.90
37446;DHT22;23307;51.136;14.942;2023-09-18T05:53:39;19.20;99.90
37446;DHT22;23307;51.136;14.942;2023-09-18T05:56:04;19.30;99.90
37446;DHT22;23307;51.136;14.942;2023-09-18T05:58:31;19.30;99.90
37446;DHT22;23307;51.136;14.942;2023-09-18T06:00:58;19.40;99.90
37446;DHT22;23307;51.136;14.942;2023-09-18T06:03:27;19.40;99.90
37446;DHT22;23307;51.136;14.942;2023-09-18T06:05:55;19.50;99.90
37446;DHT22;23307;51.136;14.942;2023-09-18T06:08:21;19.50;99.90
37446;DHT22;23307;51.136;14.942;2023-09-18T06:10:47;19.60;99.90
37446;DHT22;23307;51.136;14.942;2023-09-18T06:13:13;19.60;99.90
37446;DHT22;23307;51.136;14.942;2023-09-18T06:15:39;19.70;99.90
37446;DHT22;23307;51.136;14.942;2023-09-18T06:18:04;19.70;99.90
37446;DHT22;23307;51.136;14.942;2023-09-18T06:20:32;19.70;99.90
37446;DHT22;23307;51.136;14.942;2023-09-18T06:22:57;19.80;99.90
37446;DHT22;23307;51.136;14.942;2023-09-18T06:25:23;19.90;99.90
37446;DHT22;23307;51.136;14.942;2023-09-18T06:27:48;20.00;99.90
37446;DHT22;23307;51.136;14.942;2023-09-18T06:30:14;20.10;99.90
37446;DHT22;23307;51.136;14.942;2023-09-18T06:32:40;20.20;99.90
37446;DHT22;23307;51.136;14.942;2023-09-18T06:35:05;20.30;99.90
37446;DHT22;23307;51.136;14.942;2023-09-18T06:37:31;20.30;99.90
37446;DHT22;23307;51.136;14.942;2023-09-18T06:39:56;20.50;99.90
37446;DHT22;23307;51.136;14.942;2023-09-18T06:42:23;20.50;99.90
37446;DHT22;23307;51.136;14.942;2023-09-18T06:44:48;20.60;99.90
37446;DHT22;23307;51.136;14.942;2023-09-18T06:47:14;20.70;99.90
37446;DHT22;23307;51.136;14.942;2023-09-18T06:49:42;20.70;99.90
37446;DHT22;23307;51.136;14.942;2023-09-18T06:52:09;20.80;99.90
37446;DHT22;23307;51.136;14.942;2023-09-18T06:54:34;20.90;99.90
37446;DHT22;23307;51.136;14.942;2023-09-18T06:57:01;21.00;99.90
37446;DHT22;23307;51.136;14.942;2023-09-18T06:59:28;21.00;99.90
37446;DHT22;23307;51.136;14.942;2023-09-18T07:01:55;21.10;99.90
37446;DHT22;23307;51.136;14.942;2023-09-18T07:04:21;21.20;99.90
37446;DHT22;23307;51.136;14.942;2023-09-18T07:06:46;21.30;99.90
37446;DHT22;23307;51.136;14.942;2023-09-18T07:09:12;21.40;99.90
37446;DHT22;23307;51.136;14.942;2023-09-18T07:11:39;21.50;99.90
37446;DHT22;23307;51.136;14.942;2023-09-18T07:14:04;21.50;99.90
37446;DHT22;23307;51.136;14.942;2023-09-18T07:16:30;21.60;99.90
37446;DHT22;23307;51.136;14.942;2023-09-18T07:18:56;21.70;99.90
37446;DHT22;23307;51.136;14.942;2023-09-18T07:21:21;21.70;99.90
37446;DHT22;23307;51.136;14.942;2023-09-18T07:23:47;21.80;99.90
37446;DHT22;23307;51.136;14.942;2023-09-18T07:26:13;21.90;99.90
37446;DHT22;23307;51.136;14.942;2023-09-18T07:28:38;22.00;99.90
37446;DHT22;23307;51.136;14.942;2023-09-18T07:31:08;22.10;99.90
37446;DHT22;23307;51.136;14.942;2023-09-18T07:33:34;22.30;99.90
37446;DHT22;23307;51.136;14.942;2023-09-18T07:36:00;22.40;99.90
37446;DHT22;23307;51.136;14.942;2023-09-18T07:38:26;22.50;99.90
37446;DHT22;23307;51.136;14.942;2023-09-18T07:40:51;22.60;99.90
37446;DHT22;23307;51.136;14.942;2023-09-18T07:43:17;22.70;99.90
37446;DHT22;23307;51.136;14.942;2023-09-18T07:45:42;22.80;99.90
37446;DHT22;23307;51.136;14.942;2023-09-18T07:48:08;23.00;99.90
37446;DHT22;23307;51.136;14.942;2023-09-18T07:50:34;23.20;99.90
37446;DHT22;23307;51.136;14.942;2023-09-18T07:53:00;23.40;99.90
37446;DHT22;23307;51.136;14.942;2023-09-18T07:55:26;23.50;99.90
37446;DHT22;23307;51.136;14.942;2023-09-18T07:57:52;23.70;99.90
37446;DHT22;23307;51.136;14.942;2023-09-18T08:00:18;23.80;99.90
37446;DHT22;23307;51.136;14.942;2023-09-18T08:02:44;23.90;99.90
37446;DHT22;23307;51.136;14.942;2023-09-18T08:05:09;24.10;99.90
37446;DHT22;23307;51.136;14.942;2023-09-18T08:07:38;24.20;99.90
37446;DHT22;23307;51.136;14.942;2023-09-18T08:10:04;24.30;99.90
37446;DHT22;23307;51.136;14.942;2023-09-18T08:12:36;24.40;99.90
37446;DHT22;23307;51.136;14.942;2023-09-18T08:15:02;24.60;99.90
37446;DHT22;23307;51.136;14.942;2023-09-18T08:17:28;24.70;99.90
37446;DHT22;23307;51.136;14.942;2023-09-18T08:19:53;24.80;99.90
37446;DHT22;23307;51.136;14.942;2023-09-18T08:22:20;25.00;99.90
37446;DHT22;23307;51.136;14.942;2023-09-18T08:24:47;25.10;99.90
37446;DHT22;23307;51.136;14.942;2023-09-18T08:27:14;25.20;99.90
37446;DHT22;23307;51.136;14.942;2023-09-18T08:29:42;25.30;99.90
37446;DHT22;23307;51.136;14.942;2023-09-18T08:32:09;25.40;99.90
37446;DHT22;23307;51.136;14.942;2023-09-18T08:34:34;25.60;99.90
37446;DHT22;23307;51.136;14.942;2023-09-18T08:37:00;25.70;99.90
37446;DHT22;23307;51.136;14.942;2023-09-18T08:39:25;25.80;99.90
37446;DHT22;23307;51.136;14.942;2023-09-18T08:41:51;25.90;99.90
37446;DHT22;23307;51.136;14.942;2023-09-18T08:44:21;26.00;99.90
37446;DHT22;23307;51.136;14.942;2023-09-18T08:46:48;26.10;99.90
37446;DHT22;23307;51.136;14.942;2023-09-18T08:49:15;26.20;99.90
37446;DHT22;23307;51.136;14.942;2023-09-18T08:51:42;26.30;99.90
37446;DHT22;23307;51.136;14.942;2023-09-18T08:54:09;26.50;99.90
37446;DHT22;23307;51.136;14.942;2023-09-18T08:56:35;26.60;99.90
37446;DHT22;23307;51.136;14.942;2023-09-18T08:59:01;26.60;99.90
37446;DHT22;23307;51.136;14.942;2023-09-18T09:01:26;26.50;99.90
37446;DHT22;23307;51.136;14.942;2023-09-18T09:03:52;26.60;99.90
37446;DHT22;23307;51.136;14.942;2023-09-18T09:06:17;26.60;99.90
37446;DHT22;23307;51.136;14.942;2023-09-18T09:08:43;26.70;99.90
37446;DHT22;23307;51.136;14.942;2023-09-18T09:11:09;26.80;99.90
37446;DHT22;23307;51.136;14.942;2023-09-18T09:13:34;26.80;99.90
37446;DHT22;23307;51.136;14.942;2023-09-18T09:16:00;26.90;99.90
37446;DHT22;23307;51.136;14.942;2023-09-18T09:18:27;27.10;99.90
37446;DHT22;23307;51.136;14.942;2023-09-18T09:20:57;27.20;99.90
37446;DHT22;23307;51.136;14.942;2023-09-18T09:23:25;27.20;99.90
37446;DHT22;23307;51.136;14.942;2023-09-18T09:25:51;27.30;99.90
37446;DHT22;23307;51.136;14.942;2023-09-18T09:28:26;27.40;99.90
37446;DHT22;23307;51.136;14.942;2023-09-18T09:31:00;27.50;99.90
37446;DHT22;23307;51.136;14.942;2023-09-18T09:33:27;27.60;99.90
37446;DHT22;23307;51.136;14.942;2023-09-18T09:35:53;27.70;99.90
37446;DHT22;23307;51.136;14.942;2023-09-18T09:38:18;27.80;99.90
37446;DHT22;23307;51.136;14.942;2023-09-18T09:40:46;27.80;99.90
37446;DHT22;23307;51.136;14.942;2023-09-18T09:43:12;27.90;99.90
37446;DHT22;23307;51.136;14.942;2023-09-18T09:45:42;28.00;99.90
37446;DHT22;23307;51.136;14.942;2023-09-18T09:48:08;28.10;99.90
37446;DHT22;23307;51.136;14.942;2023-09-18T09:50:44;28.20;99.90
37446;DHT22;23307;51.136;14.942;2023-09-18T09:53:12;28.20;99.90
37446;DHT22;23307;51.136;14.942;2023-09-18T09:55:39;28.30;99.90
37446;DHT22;23307;51.136;14.942;2023-09-18T09:58:07;28.30;99.90
37446;DHT22;23307;51.136;14.942;2023-09-18T10:03:06;28.40;99.90
37446;DHT22;23307;51.136;14.942;2023-09-18T10:05:36;28.50;99.70
37446;DHT22;23307;51.136;14.942;2023-09-18T10:08:25;28.60;98.60
37446;DHT22;23307;51.136;14.942;2023-09-18T10:10:52;28.60;98.80
37446;DHT22;23307;51.136;14.942;2023-09-18T10:13:32;28.60;98.40
37446;DHT22;23307;51.136;14.942;2023-09-18T10:16:00;28.60;98.20
37446;DHT22;23307;51.136;14.942;2023-09-18T10:19:54;28.70;98.30
37446;DHT22;23307;51.136;14.942;2023-09-18T10:24:28;28.80;98.60
37446;DHT22;23307;51.136;14.942;2023-09-18T10:27:02;29.00;98.20
37446;DHT22;23307;51.136;14.942;2023-09-18T10:29:30;29.00;97.70
37446;DHT22;23307;51.136;14.942;2023-09-18T10:31:55;29.00;97.90
37446;DHT22;23307;51.136;14.942;2023-09-18T10:34:23;29.00;97.60
37446;DHT22;23307;51.136;14.942;2023-09-18T10:36:50;29.00;98.20
37446;DHT22;23307;51.136;14.942;2023-09-18T10:39:16;29.10;98.00
37446;DHT22;23307;51.136;14.942;2023-09-18T10:41:47;29.20;97.80
37446;DHT22;23307;51.136;14.942;2023-09-18T10:44:14;29.30;97.50
37446;DHT22;23307;51.136;14.942;2023-09-18T10:46:41;29.40;97.60
37446;DHT22;23307;51.136;14.942;2023-09-18T10:49:06;29.50;97.40
37446;DHT22;23307;51.136;14.942;2023-09-18T10:51:32;29.60;97.30
37446;DHT22;23307;51.136;14.942;2023-09-18T10:54:02;29.80;97.20
37446;DHT22;23307;51.136;14.942;2023-09-18T10:56:28;29.90;96.50
37446;DHT22;23307;51.136;14.942;2023-09-18T10:59:00;29.90;96.40
37446;DHT22;23307;51.136;14.942;2023-09-18T11:01:28;30.10;96.60
37446;DHT22;23307;51.136;14.942;2023-09-18T11:03:58;30.30;96.40
37446;DHT22;23307;51.136;14.942;2023-09-18T11:06:25;30.30;96.30
37446;DHT22;23307;51.136;14.942;2023-09-18T11:08:59;30.40;95.70
37446;DHT22;23307;51.136;14.942;2023-09-18T11:11:27;30.50;95.80
37446;DHT22;23307;51.136;14.942;2023-09-18T11:13:56;30.50;96.40
37446;DHT22;23307;51.136;14.942;2023-09-18T11:21:32;30.20;96.00
37446;DHT22;23307;51.136;14.942;2023-09-18T11:24:21;30.20;95.80
37446;DHT22;23307;51.136;14.942;2023-09-18T11:26:49;30.20;95.50
37446;DHT22;23307;51.136;14.942;2023-09-18T11:29:17;30.40;95.50
37446;DHT22;23307;51.136;14.942;2023-09-18T11:31:48;30.50;95.40
37446;DHT22;23307;51.136;14.942;2023-09-18T11:34:24;30.50;95.40
37446;DHT22;23307;51.136;14.942;2023-09-18T11:36:57;30.50;95.80
37446;DHT22;23307;51.136;14.942;2023-09-18T11:39:40;30.60;95.50
37446;DHT22;23307;51.136;14.942;2023-09-18T11:42:21;30.80;94.80
37446;DHT22;23307;51.136;14.942;2023-09-18T11:44:49;30.80;94.80
37446;DHT22;23307;51.136;14.942;2023-09-18T11:47:17;30.80;94.90
37446;DHT22;23307;51.136;14.942;2023-09-18T11:50:07;30.90;95.70
37446;DHT22;23307;51.136;14.942;2023-09-18T11:52:36;31.10;94.90
37446;DHT22;23307;51.136;14.942;2023-09-18T11:55:02;31.10;94.80
37446;DHT22;23307;51.136;14.942;2023-09-18T11:57:28;30.90;94.90
37446;DHT22;23307;51.136;14.942;2023-09-18T11:59:54;31.00;95.20
37446;DHT22;23307;51.136;14.942;2023-09-18T12:02:31;31.10;95.20
37446;DHT22;23307;51.136;14.942;2023-09-18T12:05:16;31.30;94.10
37446;DHT22;23307;51.136;14.942;2023-09-18T12:07:44;31.50;93.00
37446;DHT22;23307;51.136;14.942;2023-09-18T12:10:14;31.40;92.50
37446;DHT22;23307;51.136;14.942;2023-09-18T12:12:41;31.30;92.80
37446;DHT22;23307;51.136;14.942;2023-09-18T12:15:08;31.20;92.80
37446;DHT22;23307;51.136;14.942;2023-09-18T12:17:36;31.30;92.20
37446;DHT22;23307;51.136;14.942;2023-09-18T12:20:01;31.00;92.70
37446;DHT22;23307;51.136;14.942;2023-09-18T12:22:30;30.80;93.20
37446;DHT22;23307;51.136;14.942;2023-09-18T12:27:38;30.40;94.10
37446;DHT22;23307;51.136;14.942;2023-09-18T12:30:05;30.30;94.30
37446;DHT22;23307;51.136;14.942;2023-09-18T12:32:32;30.20;94.60
37446;DHT22;23307;51.136;14.942;2023-09-18T12:34:58;30.20;94.80
37446;DHT22;23307;51.136;14.942;2023-09-18T12:37:24;30.10;95.20
37446;DHT22;23307;51.136;14.942;2023-09-18T12:39:50;30.20;95.10
37446;DHT22;23307;51.136;14.942;2023-09-18T12:42:18;30.20;94.90
37446;DHT22;23307;51.136;14.942;2023-09-18T12:44:46;30.60;95.00
37446;DHT22;23307;51.136;14.942;2023-09-18T12:47:12;30.80;94.50
37446;DHT22;23307;51.136;14.942;2023-09-18T12:49:38;31.20;94.10
37446;DHT22;23307;51.136;14.942;2023-09-18T12:52:05;31.40;93.60
37446;DHT22;23307;51.136;14.942;2023-09-18T12:54:41;31.70;93.30
37446;DHT22;23307;51.136;14.942;2023-09-18T12:57:08;31.90;92.90
37446;DHT22;23307;51.136;14.942;2023-09-18T12:59:34;32.00;92.90
37446;DHT22;23307;51.136;14.942;2023-09-18T13:02:04;32.20;92.60
37446;DHT22;23307;51.136;14.942;2023-09-18T13:04:34;32.00;91.80
37446;DHT22;23307;51.136;14.942;2023-09-18T13:07:10;31.90;91.70
37446;DHT22;23307;51.136;14.942;2023-09-18T13:09:37;31.90;91.00
37446;DHT22;23307;51.136;14.942;2023-09-18T13:12:03;32.00;91.00
37446;DHT22;23307;51.136;14.942;2023-09-18T13:14:29;32.10;90.90
37446;DHT22;23307;51.136;14.942;2023-09-18T13:17:01;32.30;90.80
37446;DHT22;23307;51.136;14.942;2023-09-18T13:19:30;32.40;90.50
37446;DHT22;23307;51.136;14.942;2023-09-18T13:21:55;32.50;91.10
37446;DHT22;23307;51.136;14.942;2023-09-18T13:24:28;32.60;91.80
37446;DHT22;23307;51.136;14.942;2023-09-18T13:26:58;32.70;90.40
37446;DHT22;23307;51.136;14.942;2023-09-18T13:29:27;32.80;90.50
37446;DHT22;23307;51.136;14.942;2023-09-18T13:31:53;32.60;90.20
37446;DHT22;23307;51.136;14.942;2023-09-18T13:34:18;32.30;90.60
37446;DHT22;23307;51.136;14.942;2023-09-18T13:36:45;32.00;91.10
37446;DHT22;23307;51.136;14.942;2023-09-18T13:39:12;31.80;91.30
37446;DHT22;23307;51.136;14.942;2023-09-18T13:41:38;31.70;91.50
37446;DHT22;23307;51.136;14.942;2023-09-18T13:44:04;31.60;91.60
37446;DHT22;23307;51.136;14.942;2023-09-18T13:46:29;31.50;91.50
37446;DHT22;23307;51.136;14.942;2023-09-18T13:48:55;31.40;91.60
37446;DHT22;23307;51.136;14.942;2023-09-18T13:51:20;31.20;91.80
37446;DHT22;23307;51.136;14.942;2023-09-18T13:53:46;31.10;91.80
37446;DHT22;23307;51.136;14.942;2023-09-18T13:56:13;31.00;91.90
37446;DHT22;23307;51.136;14.942;2023-09-18T13:58:39;30.90;92.10
37446;DHT22;23307;51.136;14.942;2023-09-18T14:01:06;30.70;92.30
37446;DHT22;23307;51.136;14.942;2023-09-18T14:03:33;30.70;92.50
37446;DHT22;23307;51.136;14.942;2023-09-18T14:05:58;30.60;92.30
37446;DHT22;23307;51.136;14.942;2023-09-18T14:08:24;30.50;92.40
37446;DHT22;23307;51.136;14.942;2023-09-18T14:10:49;30.40;92.40
37446;DHT22;23307;51.136;14.942;2023-09-18T14:13:15;30.30;92.60
37446;DHT22;23307;51.136;14.942;2023-09-18T14:15:41;30.30;92.70
37446;DHT22;23307;51.136;14.942;2023-09-18T14:18:06;30.20;92.70
37446;DHT22;23307;51.136;14.942;2023-09-18T14:20:32;30.30;92.80
37446;DHT22;23307;51.136;14.942;2023-09-18T14:22:57;30.20;92.90
37446;DHT22;23307;51.136;14.942;2023-09-18T14:25:24;30.20;93.00
37446;DHT22;23307;51.136;14.942;2023-09-18T14:27:50;30.30;93.00
37446;DHT22;23307;51.136;14.942;2023-09-18T14:30:16;30.30;93.20
37446;DHT22;23307;51.136;14.942;2023-09-18T14:32:41;30.30;93.30
37446;DHT22;23307;51.136;14.942;2023-09-18T14:35:08;30.30;93.50
37446;DHT22;23307;51.136;14.942;2023-09-18T14:37:34;30.30;93.60
37446;DHT22;23307;51.136;14.942;2023-09-18T14:40:01;30.30;93.50
37446;DHT22;23307;51.136;14.942;2023-09-18T14:42:27;30.30;93.00
37446;DHT22;23307;51.136;14.942;2023-09-18T14:44:53;30.20;93.20
37446;DHT22;23307;51.136;14.942;2023-09-18T14:47:18;30.20;93.40
37446;DHT22;23307;51.136;14.942;2023-09-18T14:49:44;30.20;93.10
37446;DHT22;23307;51.136;14.942;2023-09-18T14:52:15;30.10;93.20
37446;DHT22;23307;51.136;14.942;2023-09-18T14:54:44;30.00;93.00
37446;DHT22;23307;51.136;14.942;2023-09-18T14:57:09;29.90;93.10
37446;DHT22;23307;51.136;14.942;2023-09-18T14:59:35;29.90;93.50
37446;DHT22;23307;51.136;14.942;2023-09-18T15:02:00;29.90;93.30
37446;DHT22;23307;51.136;14.942;2023-09-18T15:04:26;29.80;93.60
37446;DHT22;23307;51.136;14.942;2023-09-18T15:06:51;29.70;93.20
37446;DHT22;23307;51.136;14.942;2023-09-18T15:09:17;29.60;93.40
37446;DHT22;23307;51.136;14.942;2023-09-18T15:11:43;29.60;93.40
37446;DHT22;23307;51.136;14.942;2023-09-18T15:14:08;29.60;93.50
37446;DHT22;23307;51.136;14.942;2023-09-18T15:16:35;29.60;93.30
37446;DHT22;23307;51.136;14.942;2023-09-18T15:19:01;29.50;93.50
37446;DHT22;23307;51.136;14.942;2023-09-18T15:21:29;29.50;93.40
37446;DHT22;23307;51.136;14.942;2023-09-18T15:23:55;29.50;93.40
37446;DHT22;23307;51.136;14.942;2023-09-18T15:26:20;29.50;93.20
37446;DHT22;23307;51.136;14.942;2023-09-18T15:28:46;29.50;93.20